createdAt,value
2023-01-20T00:02:18.861Z,10.93
2023-01-20T00:04:51.786Z,10.90
2023-01-20T00:07:25.018Z,10.70
2023-01-20T00:09:57.861Z,11.43
2023-01-20T00:12:31.795Z,11.50
2023-01-20T00:15:07.120Z,11.48
2023-01-20T00:17:40.033Z,11.32
2023-01-20T00:20:13.681Z,11.05
2023-01-20T00:22:46.532Z,11.73
2023-01-20T00:25:19.268Z,10.75
2023-01-20T00:27:53.248Z,11.13
2023-01-20T00:30:27.606Z,10.55
2023-01-20T00:33:00.486Z,10.95
2023-01-20T00:35:33.267Z,10.73
2023-01-20T00:38:06.045Z,11.32
2023-01-20T00:40:38.892Z,11.45
2023-01-20T00:43:13.207Z,11.18
2023-01-20T00:45:47.399Z,10.73
2023-01-20T00:48:20.224Z,11.52
2023-01-20T00:50:53.078Z,10.90
2023-01-20T00:53:25.958Z,11.32
2023-01-20T00:55:59.038Z,12.73
2023-01-20T00:58:31.829Z,11.10
2023-01-20T01:01:06.571Z,11.40
2023-01-20T01:03:39.585Z,10.93
2023-01-20T01:06:14.963Z,11.68
2023-01-20T01:08:47.810Z,11.23
2023-01-20T01:11:20.660Z,11.68
2023-01-20T01:13:53.465Z,11.52
2023-01-20T01:16:27.654Z,11.35
2023-01-20T01:19:00.517Z,12.07
2023-01-20T01:21:33.294Z,11.00
2023-01-20T01:24:06.407Z,11.73
2023-01-20T01:26:39.220Z,10.82
2023-01-20T01:29:12.116Z,10.27
2023-01-20T01:31:46.368Z,11.45
2023-01-20T01:34:19.189Z,12.32
2023-01-20T01:36:52.088Z,11.48
2023-01-20T01:39:25.250Z,11.52
2023-01-20T01:41:58.085Z,12.18
2023-01-20T01:44:32.872Z,11.52
2023-01-20T01:47:07.360Z,11.52
2023-01-20T01:49:40.602Z,12.77
2023-01-20T01:52:13.404Z,11.38
2023-01-20T01:54:46.388Z,11.13
2023-01-20T01:57:19.198Z,11.15
2023-01-20T01:59:52.843Z,12.35
2023-01-20T02:02:27.467Z,11.35
2023-01-20T02:05:00.287Z,10.75
2023-01-20T02:07:34.525Z,12.20
2023-01-20T02:10:08.009Z,11.00
2023-01-20T02:12:42.364Z,10.63
2023-01-20T02:15:15.747Z,12.02
2023-01-20T02:17:59.780Z,11.93
2023-01-20T02:20:47.691Z,11.95
2023-01-20T02:23:38.761Z,11.25
2023-01-20T02:26:41.799Z,10.57
2023-01-20T02:29:53.205Z,11.45
2023-01-20T02:32:39.320Z,12.30
2023-01-20T02:35:17.325Z,11.90
2023-01-20T02:37:58.160Z,11.93
2023-01-20T02:40:35.856Z,11.82
2023-01-20T02:43:18.084Z,12.15
2023-01-20T02:45:58.172Z,11.80
2023-01-20T02:48:39.765Z,12.68
2023-01-20T02:51:17.204Z,11.88
2023-01-20T02:53:55.027Z,12.27
2023-01-20T02:56:30.579Z,12.10
2023-01-20T02:59:08.771Z,12.23
2023-01-20T03:01:47.653Z,12.02
2023-01-20T03:04:26.553Z,12.32
2023-01-20T03:07:01.008Z,13.10
2023-01-20T03:09:38.618Z,12.35
2023-01-20T03:12:22.312Z,13.50
2023-01-20T03:14:55.421Z,12.18
2023-01-20T03:17:28.360Z,13.25
2023-01-20T03:20:03.166Z,11.88
2023-01-20T03:22:36.001Z,13.25
2023-01-20T03:25:10.986Z,12.55
2023-01-20T03:27:43.938Z,14.05
2023-01-20T03:30:18.571Z,13.40
2023-01-20T03:32:54.428Z,12.65
2023-01-20T03:35:29.260Z,13.80
2023-01-20T03:38:02.171Z,13.35
2023-01-20T03:40:41.788Z,12.52
2023-01-20T03:43:21.659Z,13.90
2023-01-20T03:46:01.013Z,13.10
2023-01-20T03:48:42.993Z,12.60
2023-01-20T03:51:26.895Z,12.45
2023-01-20T03:54:03.373Z,12.57
2023-01-20T03:56:42.216Z,13.45
2023-01-20T03:59:17.864Z,12.82
2023-01-20T04:01:51.284Z,13.30
2023-01-20T04:04:24.551Z,14.15
2023-01-20T04:06:59.188Z,13.20
2023-01-20T04:09:37.052Z,12.85
2023-01-20T04:12:10.088Z,12.30
2023-01-20T04:14:42.896Z,14.23
2023-01-20T04:17:16.357Z,15.13
2023-01-20T04:19:49.707Z,14.02
2023-01-20T04:22:32.640Z,14.52
2023-01-20T04:25:14.361Z,13.35
2023-01-20T04:27:47.304Z,13.77
2023-01-20T04:30:20.277Z,14.00
2023-01-20T04:32:53.029Z,14.00
2023-01-20T04:35:25.825Z,13.43
2023-01-20T04:37:59.892Z,13.95
2023-01-20T04:40:32.671Z,13.50
2023-01-20T04:43:05.672Z,13.85
2023-01-20T04:45:38.649Z,14.65
2023-01-20T04:48:11.771Z,13.63
2023-01-20T04:50:45.008Z,13.55
2023-01-20T04:53:19.338Z,14.35
2023-01-20T04:55:52.138Z,14.95
2023-01-20T04:58:24.934Z,12.50
2023-01-20T05:00:57.638Z,13.65
2023-01-20T05:03:30.501Z,14.70
2023-01-20T05:06:03.385Z,13.23
2023-01-20T05:08:37.495Z,15.02
2023-01-20T05:11:10.324Z,14.27
2023-01-20T05:13:44.102Z,14.38
2023-01-20T05:16:21.884Z,13.35
2023-01-20T05:18:55.182Z,15.07
2023-01-20T05:21:28.285Z,13.73
2023-01-20T05:24:02.395Z,14.27
2023-01-20T05:26:35.477Z,13.45
2023-01-20T05:29:09.218Z,14.90
2023-01-20T05:31:43.608Z,14.32
2023-01-20T05:34:17.126Z,13.10
2023-01-20T05:36:52.551Z,13.50
2023-01-20T05:39:26.805Z,14.23
2023-01-20T05:41:59.500Z,14.30
2023-01-20T05:44:32.255Z,14.85
2023-01-20T05:47:05.213Z,14.05
2023-01-20T05:49:37.989Z,15.63
2023-01-20T05:52:11.440Z,14.98
2023-01-20T05:54:45.836Z,15.40
2023-01-20T05:57:18.650Z,14.68
2023-01-20T05:59:52.131Z,14.23
2023-01-20T06:02:24.903Z,14.30
2023-01-20T06:04:57.707Z,14.30
2023-01-20T06:07:31.582Z,15.18
2023-01-20T06:10:08.579Z,14.95
2023-01-20T06:12:41.303Z,15.50
2023-01-20T06:15:14.419Z,15.70
2023-01-20T06:17:47.526Z,15.07
2023-01-20T06:20:20.601Z,15.70
2023-01-20T06:22:56.090Z,14.82
2023-01-20T06:25:30.191Z,15.48
2023-01-20T06:28:03.057Z,15.57
2023-01-20T06:30:35.947Z,14.57
2023-01-20T06:33:10.766Z,13.48
2023-01-20T06:35:43.534Z,14.35
2023-01-20T06:38:16.238Z,13.23
2023-01-20T06:40:50.361Z,15.57
2023-01-20T06:43:23.234Z,13.77
2023-01-20T06:46:00.158Z,14.13
2023-01-20T06:48:33.314Z,14.60
2023-01-20T06:51:08.346Z,13.85
2023-01-20T06:53:41.397Z,16.48
2023-01-20T06:56:16.598Z,16.15
2023-01-20T06:58:49.363Z,15.95
2023-01-20T07:01:24.367Z,15.95
2023-01-20T07:03:57.617Z,16.35
2023-01-20T07:06:32.076Z,16.05
2023-01-20T07:09:06.450Z,16.38
2023-01-20T07:11:41.116Z,15.98
2023-01-20T07:14:13.833Z,14.82
2023-01-20T07:16:47.731Z,13.98
2023-01-20T07:19:20.498Z,12.52
2023-01-20T07:21:53.253Z,13.57
2023-01-20T07:24:26.012Z,14.35
2023-01-20T07:27:00.100Z,14.20
2023-01-20T07:29:32.843Z,14.00
2023-01-20T07:32:06.129Z,12.43
2023-01-20T07:34:38.831Z,14.40
2023-01-20T07:37:11.553Z,13.10
2023-01-20T07:39:44.214Z,12.38
2023-01-20T07:42:33.390Z,12.60
2023-01-20T07:45:07.213Z,11.73
2023-01-20T07:47:39.957Z,12.70
2023-01-20T07:50:12.696Z,11.80
2023-01-20T07:52:45.402Z,12.38
2023-01-20T07:55:18.073Z,12.43
2023-01-20T07:57:52.117Z,12.50
2023-01-20T08:00:24.897Z,13.10
2023-01-20T08:02:57.638Z,14.98
2023-01-20T08:05:30.360Z,13.25
2023-01-20T08:08:03.049Z,13.40
2023-01-20T08:10:35.820Z,12.93
2023-01-20T08:13:09.907Z,12.48
2023-01-20T08:15:42.679Z,10.98
2023-01-20T08:18:15.407Z,9.27
2023-01-20T08:20:48.076Z,8.50
2023-01-20T08:23:20.827Z,10.50
2023-01-20T08:25:59.892Z,10.05
2023-01-20T08:28:37.056Z,7.25
2023-01-20T08:31:12.841Z,7.53
2023-01-20T08:33:45.789Z,7.55
2023-01-20T08:36:20.801Z,6.82
2023-01-20T08:38:55.810Z,9.30
2023-01-20T08:41:31.353Z,8.88
2023-01-20T08:44:07.176Z,9.63
2023-01-20T08:46:41.804Z,9.10
2023-01-20T08:49:17.916Z,10.30
2023-01-20T08:51:51.250Z,7.93
2023-01-20T08:54:24.407Z,8.50
2023-01-20T08:56:57.154Z,8.05
2023-01-20T08:59:31.222Z,8.57
2023-01-20T09:02:04.044Z,8.35
2023-01-20T09:04:37.244Z,8.48
2023-01-20T09:07:12.215Z,8.52
2023-01-20T09:09:45.350Z,8.73
2023-01-20T09:12:18.125Z,9.27
2023-01-20T09:14:52.834Z,8.63
2023-01-20T09:17:25.610Z,9.35
2023-01-20T09:19:58.375Z,9.23
2023-01-20T09:22:31.048Z,9.00
2023-01-20T09:25:03.880Z,10.70
2023-01-20T09:27:37.107Z,10.27
2023-01-20T09:30:12.111Z,10.02
2023-01-20T09:32:44.806Z,9.85
2023-01-20T09:35:18.167Z,10.30
2023-01-20T09:38:09.020Z,11.00
2023-01-20T09:41:07.040Z,10.18
2023-01-20T09:43:55.292Z,10.60
2023-01-20T09:47:07.392Z,10.90
2023-01-20T09:50:07.951Z,11.15
2023-01-20T09:52:58.206Z,10.70
2023-01-20T09:55:39.721Z,10.20
2023-01-20T09:58:20.178Z,12.02
2023-01-20T10:03:37.246Z,10.10
2023-01-20T10:06:14.375Z,12.25
2023-01-20T10:09:04.605Z,11.00
2023-01-20T10:11:42.140Z,11.25
2023-01-20T10:14:20.785Z,12.02
2023-01-20T10:17:00.009Z,13.55
2023-01-20T10:19:42.342Z,16.27
2023-01-20T10:22:22.082Z,12.88
2023-01-20T10:25:01.086Z,11.57
2023-01-20T10:27:36.862Z,10.55
2023-01-20T10:30:15.541Z,10.30
2023-01-20T10:32:53.506Z,11.07
2023-01-20T10:35:29.463Z,10.30
2023-01-20T10:38:03.760Z,9.55
2023-01-20T10:40:42.197Z,11.80
2023-01-20T10:43:17.532Z,10.10
2023-01-20T10:46:12.311Z,11.55
2023-01-20T10:49:06.498Z,10.68
2023-01-20T10:51:48.195Z,10.65
2023-01-20T10:54:30.019Z,11.00
2023-01-20T10:57:05.024Z,10.20
2023-01-20T10:59:43.297Z,11.10
2023-01-20T11:02:20.330Z,11.18
2023-01-20T11:04:58.771Z,10.80
2023-01-20T11:07:35.027Z,11.48
2023-01-20T11:10:15.998Z,10.50
2023-01-20T11:12:53.109Z,10.75
2023-01-20T11:15:30.029Z,10.32
2023-01-20T11:18:26.496Z,11.13
2023-01-20T11:21:02.287Z,10.90
2023-01-20T11:23:41.659Z,10.55
2023-01-20T11:26:21.860Z,11.60
2023-01-20T11:28:57.166Z,10.23
2023-01-20T11:31:39.289Z,10.98
2023-01-20T11:34:24.270Z,11.05
2023-01-20T11:37:18.209Z,11.00
2023-01-20T11:40:01.129Z,10.88
2023-01-20T11:42:45.921Z,10.40
2023-01-20T11:45:28.557Z,9.93
2023-01-20T11:48:05.472Z,11.30
2023-01-20T11:50:40.573Z,11.30
2023-01-20T11:53:24.726Z,11.85
2023-01-20T11:56:01.121Z,9.95
2023-01-20T11:58:51.418Z,11.65
2023-01-20T12:01:26.732Z,11.88
2023-01-20T12:04:24.092Z,10.45
2023-01-20T12:07:03.497Z,16.67
2023-01-20T12:09:38.821Z,11.35
2023-01-20T12:12:21.791Z,10.73
2023-01-20T12:15:01.699Z,11.52
2023-01-20T12:17:43.155Z,12.93
2023-01-20T12:20:23.651Z,12.30
2023-01-20T12:23:08.513Z,12.50
2023-01-20T12:25:49.932Z,11.77
2023-01-20T12:28:30.052Z,13.43
2023-01-20T12:31:04.488Z,11.65
2023-01-20T12:33:41.227Z,11.77
2023-01-20T12:36:29.886Z,13.50
2023-01-20T12:39:38.207Z,12.55
2023-01-20T12:42:36.028Z,12.40
2023-01-20T12:45:23.926Z,12.93
2023-01-20T12:48:12.138Z,12.10
2023-01-20T12:50:58.474Z,11.02
2023-01-20T12:53:46.429Z,11.38
2023-01-20T12:56:30.282Z,9.77
2023-01-20T12:59:16.325Z,9.02
2023-01-20T13:02:05.784Z,7.88
2023-01-20T13:05:15.407Z,8.80
2023-01-20T13:08:02.623Z,7.65
2023-01-20T13:10:57.670Z,108.65
2023-01-20T13:13:55.874Z,14.93
2023-01-20T13:16:36.592Z,15.30
2023-01-20T13:19:15.985Z,41.05
2023-01-20T13:22:06.562Z,15.15
2023-01-20T13:24:45.116Z,40.60
2023-01-20T13:27:22.928Z,13.57
2023-01-20T13:29:57.769Z,13.52
2023-01-20T13:32:33.572Z,11.27
2023-01-20T13:35:45.926Z,12.20
2023-01-20T13:38:23.885Z,10.65
2023-01-20T13:40:58.686Z,10.75
2023-01-20T13:43:50.331Z,11.65
2023-01-20T13:46:48.893Z,10.88
2023-01-20T13:49:25.010Z,10.00
2023-01-20T13:51:59.055Z,10.65
2023-01-20T13:54:46.012Z,10.77
2023-01-20T13:57:45.827Z,10.40
2023-01-20T14:00:20.764Z,10.52
2023-01-20T14:02:54.010Z,11.10
2023-01-20T14:05:34.275Z,11.43
2023-01-20T14:08:14.760Z,11.45
2023-01-20T14:10:47.728Z,10.68
2023-01-20T14:13:22.832Z,11.32
2023-01-20T14:15:57.205Z,11.85
2023-01-20T14:18:30.104Z,12.82
2023-01-20T14:21:06.035Z,11.85
2023-01-20T14:23:40.502Z,12.93
2023-01-20T14:26:14.930Z,11.15
2023-01-20T14:28:50.182Z,12.02
2023-01-20T14:31:32.511Z,13.05
2023-01-20T14:34:24.490Z,11.93
2023-01-20T14:39:33.437Z,12.15
2023-01-20T14:42:19.203Z,14.00
2023-01-20T14:44:53.645Z,13.27
2023-01-20T14:47:27.958Z,14.02
2023-01-20T14:50:02.573Z,14.00
2023-01-20T14:52:35.399Z,14.20
2023-01-20T14:55:31.648Z,13.85
2023-01-20T14:58:09.220Z,13.77
2023-01-20T15:00:44.634Z,13.75
2023-01-20T15:03:21.691Z,12.60
2023-01-20T15:05:58.217Z,15.95
2023-01-20T15:08:56.897Z,15.52
2023-01-20T15:11:38.645Z,14.85
2023-01-20T15:14:13.510Z,14.30
2023-01-20T15:16:51.881Z,13.85
2023-01-20T15:19:37.045Z,12.95
2023-01-20T15:22:19.434Z,13.95
2023-01-20T15:24:52.866Z,13.27
2023-01-20T15:27:37.992Z,12.05
2023-01-20T15:30:18.807Z,13.15
2023-01-20T15:32:52.342Z,12.63
2023-01-20T15:35:27.041Z,13.25
2023-01-20T15:37:59.852Z,12.65
2023-01-20T15:40:32.885Z,12.68
2023-01-20T15:43:15.396Z,12.77
2023-01-20T15:45:48.090Z,13.05
2023-01-20T15:48:22.321Z,12.93
2023-01-20T15:50:55.093Z,12.27
2023-01-20T15:53:27.842Z,12.57
2023-01-20T15:56:01.039Z,11.43
2023-01-20T15:58:35.830Z,12.93
2023-01-20T16:01:13.753Z,13.38
2023-01-20T16:03:46.778Z,13.27
2023-01-20T16:06:21.138Z,12.25
2023-01-20T16:08:53.970Z,14.18
2023-01-20T16:11:26.864Z,13.30
2023-01-20T16:14:00.903Z,14.07
2023-01-20T16:16:33.692Z,17.23
2023-01-20T16:19:06.771Z,16.27
2023-01-20T16:21:39.747Z,15.38
2023-01-20T16:24:12.859Z,14.00
2023-01-20T16:26:48.030Z,0.10
2023-01-20T16:29:22.062Z,0.20
2023-01-20T16:31:54.885Z,0.10
2023-01-20T16:34:27.611Z,0.10
2023-01-20T16:37:00.309Z,0.10
2023-01-20T16:39:33.702Z,3.03
2023-01-20T16:42:06.675Z,2.95
2023-01-20T16:44:40.751Z,0.10
2023-01-20T16:47:13.482Z,0.45
2023-01-20T16:49:46.134Z,0.15
2023-01-20T16:52:22.038Z,0.10
2023-01-20T16:54:54.813Z,0.10
2023-01-20T16:57:27.818Z,0.20
2023-01-20T17:00:01.917Z,0.45
2023-01-20T17:02:35.076Z,0.63
2023-01-20T17:05:08.628Z,0.28
2023-01-20T17:07:41.407Z,0.10
2023-01-20T17:10:14.717Z,0.52
2023-01-20T17:12:48.970Z,0.10
2023-01-20T17:15:24.496Z,0.20
2023-01-20T17:18:00.232Z,0.77
2023-01-20T17:20:32.980Z,3.30
2023-01-20T17:23:05.699Z,0.52
2023-01-20T17:25:38.438Z,0.10
2023-01-20T17:28:11.195Z,0.17
2023-01-20T17:30:45.388Z,0.20
2023-01-20T17:33:18.238Z,0.20
2023-01-20T17:36:01.815Z,1.40
2023-01-20T17:38:39.772Z,0.45
2023-01-20T17:41:13.295Z,0.20
2023-01-20T17:43:49.941Z,0.10
2023-01-20T17:46:27.679Z,0.20
2023-01-20T17:49:01.707Z,0.35
2023-01-20T17:51:35.023Z,0.30
2023-01-20T17:54:07.739Z,4.68
2023-01-20T17:56:40.521Z,0.28
2023-01-20T17:59:13.208Z,0.10
2023-01-20T18:01:48.237Z,0.10
2023-01-20T18:04:20.986Z,1.13
2023-01-20T18:06:53.731Z,1.45
2023-01-20T18:09:26.476Z,0.20
2023-01-20T18:12:00.238Z,0.20
2023-01-20T18:14:33.135Z,0.50
2023-01-20T18:17:07.308Z,0.20
2023-01-20T18:19:40.088Z,0.10
2023-01-20T18:22:14.278Z,0.10
2023-01-20T18:24:47.168Z,0.20
2023-01-20T18:27:19.876Z,0.40
2023-01-20T18:29:54.330Z,0.20
2023-01-20T18:32:28.454Z,0.13
2023-01-20T18:35:01.189Z,3.05
2023-01-20T18:37:33.982Z,6.53
2023-01-20T18:40:08.217Z,0.20
2023-01-20T18:42:42.765Z,3.20
2023-01-20T18:45:15.500Z,0.28
2023-01-20T18:47:50.837Z,0.20
2023-01-20T18:50:27.025Z,0.30
2023-01-20T18:53:05.011Z,0.20
2023-01-20T18:55:37.851Z,1.10
2023-01-20T18:58:10.532Z,0.60
2023-01-20T19:00:43.572Z,0.20
2023-01-20T19:03:17.676Z,0.20
2023-01-20T19:05:50.472Z,0.30
2023-01-20T19:08:23.248Z,0.20
2023-01-20T19:11:00.620Z,0.50
2023-01-20T19:13:33.715Z,7.22
2023-01-20T19:16:10.115Z,1.38
2023-01-20T19:18:46.045Z,0.22
2023-01-20T19:21:19.140Z,0.30
2023-01-20T19:23:52.847Z,0.22
2023-01-20T19:26:27.451Z,0.28
2023-01-20T19:29:02.627Z,0.28
2023-01-20T19:31:37.927Z,0.75
2023-01-20T19:34:12.773Z,0.25
2023-01-20T19:36:45.460Z,0.20
2023-01-20T19:39:18.364Z,0.22
2023-01-20T19:41:51.604Z,2.67
2023-01-20T19:44:25.335Z,0.20
2023-01-20T19:47:04.075Z,0.45
2023-01-20T19:49:38.351Z,0.30
2023-01-20T19:52:11.159Z,0.40
2023-01-20T19:54:43.949Z,3.03
2023-01-20T19:57:16.701Z,0.20
2023-01-20T19:59:51.105Z,1.17
2023-01-20T20:02:23.916Z,0.73
2023-01-20T20:04:58.076Z,1.60
2023-01-20T20:07:30.830Z,0.98
2023-01-20T20:10:03.645Z,0.60
2023-01-20T20:12:36.406Z,2.63
2023-01-20T20:15:09.924Z,1.00
2023-01-20T20:17:42.988Z,0.13
2023-01-20T20:20:18.270Z,0.20
2023-01-20T20:22:51.286Z,2.50
2023-01-20T20:25:24.045Z,0.20
2023-01-20T20:27:57.705Z,0.20
2023-01-20T20:30:30.593Z,2.50
2023-01-20T20:33:03.351Z,0.20
2023-01-20T20:35:37.908Z,1.85
2023-01-20T20:38:10.707Z,2.65
2023-01-20T20:40:43.489Z,3.42
2023-01-20T20:43:16.280Z,0.82
2023-01-20T20:45:49.047Z,1.83
2023-01-20T20:48:21.869Z,2.25
2023-01-20T20:50:55.986Z,1.75
2023-01-20T20:53:28.753Z,0.20
2023-01-20T20:56:04.026Z,0.30
2023-01-20T20:58:43.323Z,0.30
2023-01-20T21:01:21.678Z,0.52
2023-01-20T21:03:57.371Z,0.20
2023-01-20T21:06:32.421Z,0.65
2023-01-20T21:09:05.395Z,0.25
2023-01-20T21:11:38.711Z,0.40
2023-01-20T21:14:12.102Z,0.40
2023-01-20T21:16:44.871Z,0.20
2023-01-20T21:19:17.664Z,0.35
2023-01-20T21:21:51.981Z,0.20
2023-01-20T21:24:28.971Z,1.85
2023-01-20T21:27:02.146Z,0.73
2023-01-20T21:29:34.838Z,0.68
2023-01-20T21:32:07.622Z,0.35
2023-01-20T21:34:40.322Z,0.10
2023-01-20T21:37:14.419Z,0.95
2023-01-20T21:39:47.104Z,0.20
2023-01-20T21:42:19.803Z,0.20
2023-01-20T21:44:51.628Z,0.88
2023-01-20T21:47:24.511Z,2.00
2023-01-20T21:50:29.555Z,0.20
2023-01-20T21:53:03.926Z,1.45
2023-01-20T21:55:37.956Z,0.10
2023-01-20T21:58:10.748Z,0.20
2023-01-20T22:00:43.701Z,0.20
2023-01-20T22:03:16.453Z,0.20
2023-01-20T22:05:49.312Z,0.20
2023-01-20T22:08:23.403Z,0.20
2023-01-20T22:10:56.726Z,0.20
2023-01-20T22:13:29.917Z,0.20
2023-01-20T22:16:03.137Z,0.43
2023-01-20T22:18:35.983Z,0.75
2023-01-20T22:21:09.229Z,2.05
2023-01-20T22:23:43.976Z,0.15
2023-01-20T22:26:16.841Z,8.70
2023-01-20T22:28:49.712Z,0.43
2023-01-20T22:31:23.998Z,1.60
2023-01-20T22:33:59.700Z,0.28
2023-01-20T22:36:32.559Z,0.95
2023-01-20T22:39:07.507Z,1.42
2023-01-20T22:41:40.816Z,0.20
2023-01-20T22:44:13.674Z,0.20
2023-01-20T22:46:46.423Z,0.20
2023-01-20T22:49:19.436Z,0.20
2023-01-20T22:51:54.882Z,0.20
2023-01-20T22:54:28.993Z,0.20
2023-01-20T22:57:01.677Z,0.20
2023-01-20T22:59:35.690Z,0.20
2023-01-20T23:02:08.661Z,0.40
2023-01-20T23:04:41.965Z,0.20
2023-01-20T23:07:15.100Z,0.20
2023-01-20T23:09:49.995Z,0.20
2023-01-20T23:12:22.709Z,0.20
2023-01-20T23:15:01.853Z,0.10
2023-01-20T23:17:34.830Z,0.20
2023-01-20T23:20:08.819Z,0.20
2023-01-20T23:22:41.504Z,0.20
2023-01-20T23:25:15.921Z,0.57
2023-01-20T23:27:48.597Z,0.20
2023-01-20T23:30:21.550Z,0.30
2023-01-20T23:32:54.663Z,0.20
2023-01-20T23:35:27.580Z,0.40
2023-01-20T23:38:00.320Z,0.98
2023-01-20T23:40:35.699Z,0.20
2023-01-20T23:43:08.955Z,0.17
2023-01-20T23:45:41.803Z,0.20
2023-01-20T23:48:15.127Z,0.20
2023-01-20T23:50:47.864Z,0.20
2023-01-20T23:53:20.716Z,0.20
2023-01-20T23:55:59.901Z,0.20
2023-01-20T23:58:33.460Z,0.40
